Weather at Ghantoot Hotel 2 Helipad

Public forecast

Using degrees Celsius for public forecast. Weather courtesy of forecast.io.

Closest aviation weather report (METAR) to Ghantoot Hotel 2 Helipad

Closest report is Al Maktoum International Airport, 15.3 nm (28.4 km) E.

2024/06/21 18:00 (retrieved 25 minutes ago)

OMDW 211800Z 25003KT 220V280 6000 NSC 34/30 Q0997 NOSIG

Closest aviation forecast (TAF) to Ghantoot Hotel 2 Helipad

Closest forecast is Al Maktoum International Airport, 15.3 nm (28.4 km) E.

2024/06/21 18:00 (retrieved 25 minutes ago)

TAF OMDW 211700Z 2118/2300 10005KT 8000 NSC BECMG 2209/2211 33014KT PROB30 TEMPO 2209/2213 33017G27KT 3000 BLDU BECMG 2215/2217 08005KT